Aviation Digital Data Service (ADDS)

Output produced by METARs form (1524 UTC 07 July 2015)
found at http://aviationweather.gov/adds/metars/
 
KDEN 071422Z 0714/0818 15012KT 3SM HZ BKN050 BKN100 
     TEMPO 0715/0717 -SHRA SCT010 SCT050 
     FM071700 15014KT P6SM VCSH SCT050 BKN120 
     FM071900 17016KT P6SM VCTS SCT050CB BKN080 
     TEMPO 0720/0724 5SM -TSRA BKN050CB 
     FM080000 16014KT P6SM VCTS SCT050CB BKN120 
     FM080300 18010KT P6SM VCSH SCT050 BKN120 
     FM080700 15007KT P6SM VCTS SCT040CB BKN100